Time;durP1;ratioP1;P1;durP2;ratioP2;P2;SDS_P1;SDS_P2;PMS_P1;PMS_P2;Temp;Humidity;BMP_temperature;BMP_pressure;BME280_temperature;BME280_humidity;BME280_pressure;Samples;Min_cycle;Max_cycle;Signal;HPM_P1;HPM_P2
2022/05/20 00:01:48;;;;;;;;;;;15.30;56.10;;;;;;4966337;28;88057;-46
2022/05/20 00:04:13;;;;;;;;;;;15.30;56.30;;;;;;4967257;28;86123;-46
2022/05/20 00:06:39;;;;;;;;;;;15.30;56.20;;;;;;4966399;28;86844;-46
2022/05/20 00:09:05;;;;;;;;;;;15.30;56.30;;;;;;4965999;28;87545;-46
2022/05/20 00:11:31;;;;;;;;;;;15.30;56.30;;;;;;4965636;28;88206;-46
2022/05/20 00:13:57;;;;;;;;;;;15.30;56.30;;;;;;4968934;28;87230;-46
2022/05/20 00:16:23;;;;;;;;;;;15.30;56.30;;;;;;4966399;28;86924;-46
2022/05/20 00:18:49;;;;;;;;;;;15.20;56.20;;;;;;4966033;28;87736;-46
2022/05/20 00:21:15;;;;;;;;;;;15.20;56.40;;;;;;4965687;28;87633;-46
2022/05/20 00:23:41;;;;;;;;;;;15.20;56.30;;;;;;4965966;28;86860;-46
2022/05/20 00:26:07;;;;;;;;;;;15.20;56.30;;;;;;4966139;28;87119;-46
2022/05/20 00:28:33;;;;;;;;;;;15.20;56.40;;;;;;4965861;28;86945;-46
2022/05/20 00:31:06;;;;;;;;;;;15.20;56.40;;;;;;4965797;28;86899;-46
2022/05/20 00:33:34;;;;;;;;;;;15.10;57.00;;;;;;4968530;28;87307;-46
2022/05/20 00:35:59;;;;;;;;;;;15.10;56.40;;;;;;4964908;28;87960;-46
2022/05/20 00:38:26;;;;;;;;;;;15.10;56.50;;;;;;4965715;28;88036;-46
2022/05/20 00:40:53;;;;;;;;;;;15.00;56.50;;;;;;4965251;28;87799;-46
2022/05/20 00:43:24;;;;;;;;;;;15.00;56.40;;;;;;4968083;28;86879;-46
2022/05/20 00:45:51;;;;;;;;;;;15.00;56.40;;;;;;4969415;28;86847;-46
2022/05/20 00:48:16;;;;;;;;;;;15.00;56.50;;;;;;4968567;28;90896;-46
2022/05/20 00:50:46;;;;;;;;;;;15.00;56.50;;;;;;4968723;28;86804;-46
2022/05/20 00:53:13;;;;;;;;;;;15.00;56.50;;;;;;4969465;28;87894;-46
2022/05/20 00:55:41;;;;;;;;;;;15.00;56.60;;;;;;4971701;28;87483;-46
2022/05/20 00:58:10;;;;;;;;;;;14.90;56.50;;;;;;4968952;28;86922;-46
2022/05/20 01:00:42;;;;;;;;;;;14.90;56.60;;;;;;4967662;28;89535;-46
2022/05/20 01:03:09;;;;;;;;;;;14.90;56.60;;;;;;4968730;28;86836;-46
2022/05/20 01:05:37;;;;;;;;;;;14.90;56.60;;;;;;4968672;28;87928;-46
2022/05/20 01:08:03;;;;;;;;;;;14.90;56.60;;;;;;4968718;28;86926;-46
2022/05/20 01:10:29;;;;;;;;;;;14.90;56.50;;;;;;4968687;28;87124;-47
2022/05/20 01:12:55;;;;;;;;;;;14.90;56.50;;;;;;4968728;28;87938;-46
2022/05/20 01:15:21;;;;;;;;;;;14.90;56.50;;;;;;4968388;28;88616;-46
2022/05/20 01:17:48;;;;;;;;;;;14.80;56.50;;;;;;4972003;28;86214;-46
2022/05/20 01:20:19;;;;;;;;;;;14.80;56.60;;;;;;4968194;28;87565;-46
2022/05/20 01:22:58;;;;;;;;;;;14.80;56.60;;;;;;4968757;28;87182;-46
2022/05/20 01:25:25;;;;;;;;;;;14.80;56.60;;;;;;4967988;28;88029;-46
2022/05/20 01:27:51;;;;;;;;;;;14.70;56.60;;;;;;4968566;28;87614;-46
2022/05/20 01:30:19;;;;;;;;;;;14.80;56.60;;;;;;4968930;28;86869;-46
2022/05/20 01:32:44;;;;;;;;;;;14.70;56.60;;;;;;4968852;28;87195;-46
2022/05/20 01:35:12;;;;;;;;;;;14.70;56.60;;;;;;4968122;28;88413;-46
2022/05/20 01:37:38;;;;;;;;;;;14.70;56.70;;;;;;4968550;28;87253;-46
2022/05/20 01:40:04;;;;;;;;;;;14.70;56.70;;;;;;4970828;28;87904;-46
2022/05/20 01:42:30;;;;;;;;;;;14.70;56.70;;;;;;4968863;28;86366;-46
2022/05/20 01:45:00;;;;;;;;;;;14.60;56.70;;;;;;4968299;28;87259;-47
2022/05/20 01:47:37;;;;;;;;;;;14.60;56.70;;;;;;4967974;28;88664;-46
2022/05/20 01:50:14;;;;;;;;;;;14.60;56.70;;;;;;4967637;28;87633;-46
2022/05/20 01:52:39;;;;;;;;;;;14.60;56.80;;;;;;4967828;28;87838;-46
2022/05/20 01:55:08;;;;;;;;;;;14.60;56.80;;;;;;4966772;28;87641;-46
2022/05/20 01:57:39;;;;;;;;;;;14.60;56.80;;;;;;4968390;28;86846;-46
2022/05/20 02:00:09;;;;;;;;;;;14.60;56.80;;;;;;4967971;28;87982;-46
2022/05/20 02:02:43;;;;;;;;;;;14.50;56.70;;;;;;4970306;28;88650;-47
2022/05/20 02:05:15;;;;;;;;;;;14.50;56.70;;;;;;4968016;28;87918;-47
2022/05/20 02:07:44;;;;;;;;;;;14.50;56.70;;;;;;4968022;28;86910;-48
2022/05/20 02:10:16;;;;;;;;;;;14.50;56.70;;;;;;4967830;28;87206;-46
2022/05/20 02:12:46;;;;;;;;;;;14.50;56.70;;;;;;4967743;28;87941;-46
2022/05/20 02:15:15;;;;;;;;;;;14.40;56.70;;;;;;4966646;28;89541;-46
2022/05/20 02:17:43;;;;;;;;;;;14.50;56.80;;;;;;4967650;28;87151;-46
2022/05/20 02:20:13;;;;;;;;;;;14.40;56.70;;;;;;4967564;28;88149;-46
2022/05/20 02:22:44;;;;;;;;;;;14.40;56.70;;;;;;4967472;28;86930;-46
2022/05/20 02:25:12;;;;;;;;;;;14.50;56.70;;;;;;4970448;28;86907;-46
2022/05/20 02:27:42;;;;;;;;;;;14.50;56.70;;;;;;4967169;28;88741;-46
2022/05/20 02:30:12;;;;;;;;;;;14.40;56.70;;;;;;4967650;28;87251;-46
2022/05/20 02:32:54;;;;;;;;;;;14.40;56.70;;;;;;4967930;28;88087;-46
2022/05/20 02:35:19;;;;;;;;;;;14.30;56.80;;;;;;4967270;28;87362;-46
2022/05/20 02:37:45;;;;;;;;;;;14.30;56.80;;;;;;4967682;28;86859;-46
2022/05/20 02:40:13;;;;;;;;;;;14.30;56.70;;;;;;4967060;28;87840;-46
2022/05/20 02:42:39;;;;;;;;;;;14.30;56.60;;;;;;4967116;28;88300;-47
2022/05/20 02:45:05;;;;;;;;;;;14.30;56.60;;;;;;4970205;28;87228;-46
2022/05/20 02:47:33;;;;;;;;;;;14.30;56.50;;;;;;4967249;28;87363;-47
2022/05/20 02:49:59;;;;;;;;;;;14.30;56.60;;;;;;4966785;28;86898;-46
2022/05/20 02:52:25;;;;;;;;;;;14.30;56.80;;;;;;4967422;28;87029;-46
2022/05/20 02:54:51;;;;;;;;;;;14.20;56.60;;;;;;4967072;28;88485;-46
2022/05/20 02:57:16;;;;;;;;;;;14.20;56.60;;;;;;4967823;28;86142;-46
2022/05/20 03:05:11;;;;;;;;;;;14.20;56.60;;;;;;4963581;28;87845;-46
2022/05/20 03:07:37;;;;;;;;;;;14.20;56.70;;;;;;4969559;28;88963;-47
2022/05/20 03:10:03;;;;;;;;;;;14.20;56.60;;;;;;4967302;28;87047;-46
2022/05/20 03:12:29;;;;;;;;;;;14.10;56.70;;;;;;4967072;28;87125;-46
2022/05/20 03:14:55;;;;;;;;;;;14.10;56.80;;;;;;4966666;28;87758;-46
2022/05/20 03:17:21;;;;;;;;;;;14.10;56.70;;;;;;4967301;28;86877;-46
2022/05/20 03:19:47;;;;;;;;;;;14.10;56.80;;;;;;4966917;28;87926;-46
2022/05/20 03:22:12;;;;;;;;;;;14.10;56.70;;;;;;4967231;28;87687;-46
2022/05/20 03:24:38;;;;;;;;;;;14.10;56.50;;;;;;4966994;28;86837;-46
2022/05/20 03:27:05;;;;;;;;;;;14.10;56.60;;;;;;4967039;28;87029;-46
2022/05/20 03:29:32;;;;;;;;;;;14.00;56.70;;;;;;4968709;28;89309;-46
2022/05/20 03:31:58;;;;;;;;;;;14.00;56.60;;;;;;4966889;28;88857;-46
2022/05/20 03:34:24;;;;;;;;;;;14.00;56.60;;;;;;4966160;28;88407;-46
2022/05/20 03:36:50;;;;;;;;;;;14.00;56.60;;;;;;4966772;28;86880;-46
2022/05/20 03:39:19;;;;;;;;;;;14.00;56.80;;;;;;4966416;28;88447;-46
2022/05/20 03:41:45;;;;;;;;;;;14.00;57.30;;;;;;4966036;28;88431;-46
2022/05/20 03:44:12;;;;;;;;;;;14.00;56.70;;;;;;4966640;28;86886;-46
2022/05/20 03:46:40;;;;;;;;;;;13.90;56.80;;;;;;4967094;28;87869;-46
2022/05/20 03:49:06;;;;;;;;;;;13.90;56.70;;;;;;4965866;28;88727;-46
2022/05/20 03:51:32;;;;;;;;;;;13.90;56.80;;;;;;4969306;28;86909;-46
2022/05/20 03:53:57;;;;;;;;;;;13.90;56.90;;;;;;4965418;28;88658;-46
2022/05/20 03:56:23;;;;;;;;;;;13.90;56.80;;;;;;4966727;28;87094;-46
2022/05/20 03:58:48;;;;;;;;;;;13.80;56.80;;;;;;4966726;28;86870;-46
2022/05/20 04:03:58;;;;;;;;;;;13.80;56.90;;;;;;4966660;28;86873;-46
2022/05/20 04:06:24;;;;;;;;;;;13.80;56.90;;;;;;4966243;28;88367;-46
2022/05/20 04:08:50;;;;;;;;;;;13.80;56.90;;;;;;4966007;28;87406;-46
2022/05/20 04:11:16;;;;;;;;;;;13.80;56.90;;;;;;4966979;28;86152;-46
2022/05/20 04:13:43;;;;;;;;;;;13.80;56.90;;;;;;4968945;28;87061;-46
2022/05/20 04:16:10;;;;;;;;;;;13.80;56.90;;;;;;4966343;28;86889;-46
2022/05/20 04:18:37;;;;;;;;;;;13.70;57.00;;;;;;4968803;28;87852;-46
2022/05/20 04:21:04;;;;;;;;;;;13.70;56.90;;;;;;4969298;28;88834;-46
2022/05/20 04:23:30;;;;;;;;;;;13.70;56.90;;;;;;4969818;28;86904;-46
2022/05/20 04:25:55;;;;;;;;;;;13.70;57.00;;;;;;4970056;28;86820;-46
2022/05/20 04:28:21;;;;;;;;;;;13.70;57.10;;;;;;4969392;28;88369;-46
2022/05/20 04:30:47;;;;;;;;;;;13.70;57.00;;;;;;4969614;28;86886;-46
2022/05/20 04:33:13;;;;;;;;;;;13.60;57.00;;;;;;4969694;28;87102;-46
2022/05/20 04:35:39;;;;;;;;;;;13.60;57.00;;;;;;4972434;28;87777;-46
2022/05/20 04:38:06;;;;;;;;;;;13.70;57.00;;;;;;4969616;28;86869;-46
2022/05/20 04:40:31;;;;;;;;;;;13.60;57.10;;;;;;4969149;28;86805;-46
2022/05/20 04:48:33;;;;;;;;;;;13.60;57.20;;;;;;4938107;28;86979;-46
2022/05/20 04:50:59;;;;;;;;;;;13.60;57.10;;;;;;4968871;28;86964;-46
2022/05/20 04:56:09;;;;;;;;;;;13.60;57.10;;;;;;4971978;28;87088;-46
2022/05/20 04:58:35;;;;;;;;;;;13.60;57.00;;;;;;4969168;28;87874;-46
2022/05/20 05:01:01;;;;;;;;;;;13.60;57.10;;;;;;4969121;28;87853;-46
2022/05/20 05:03:26;;;;;;;;;;;13.70;57.10;;;;;;4969167;28;86907;-46
2022/05/20 05:05:52;;;;;;;;;;;13.70;56.90;;;;;;4969206;28;87909;-47
2022/05/20 05:08:18;;;;;;;;;;;13.70;56.90;;;;;;4968516;28;88566;-46
2022/05/20 05:10:44;;;;;;;;;;;13.70;56.90;;;;;;4969227;28;87328;-46
2022/05/20 05:13:10;;;;;;;;;;;13.70;57.00;;;;;;4969345;28;87150;-46
2022/05/20 05:15:37;;;;;;;;;;;13.70;57.10;;;;;;4968836;28;87024;-47
2022/05/20 05:18:21;;;;;;;;;;;13.70;57.10;;;;;;4971958;28;86889;-46
2022/05/20 05:20:50;;;;;;;;;;;13.70;57.10;;;;;;4968758;28;86991;-46
2022/05/20 05:23:16;;;;;;;;;;;13.60;57.30;;;;;;4968923;28;86864;-46
2022/05/20 05:25:42;;;;;;;;;;;13.60;57.40;;;;;;4969291;28;87884;-46
2022/05/20 05:28:08;;;;;;;;;;;13.60;57.50;;;;;;4967372;28;88390;-46
2022/05/20 05:30:34;;;;;;;;;;;13.60;57.50;;;;;;4968019;28;86907;-47
2022/05/20 05:33:00;;;;;;;;;;;13.60;57.30;;;;;;4967555;28;88408;-46
2022/05/20 05:35:27;;;;;;;;;;;13.70;57.20;;;;;;4968190;28;86892;-46
2022/05/20 05:37:53;;;;;;;;;;;13.70;57.30;;;;;;4968273;28;87088;-47
2022/05/20 05:40:20;;;;;;;;;;;13.70;57.30;;;;;;4970982;28;88465;-48
2022/05/20 05:42:46;;;;;;;;;;;13.70;57.30;;;;;;4968243;28;86884;-46
2022/05/20 05:45:12;;;;;;;;;;;13.60;57.20;;;;;;4967905;28;87038;-46
2022/05/20 05:47:38;;;;;;;;;;;13.70;57.30;;;;;;4967332;28;87580;-47
2022/05/20 05:50:04;;;;;;;;;;;13.70;57.30;;;;;;4968012;28;86154;-46
2022/05/20 05:52:30;;;;;;;;;;;13.70;57.40;;;;;;4967924;28;88263;-46
2022/05/20 05:54:55;;;;;;;;;;;13.70;57.30;;;;;;4967311;28;87411;-46
2022/05/20 05:57:21;;;;;;;;;;;13.70;57.40;;;;;;4967076;28;87797;-45
2022/05/20 05:59:46;;;;;;;;;;;13.70;57.50;;;;;;4967424;28;87958;-46
2022/05/20 06:02:12;;;;;;;;;;;13.70;57.50;;;;;;4970144;28;88468;-47
2022/05/20 06:04:38;;;;;;;;;;;13.70;57.60;;;;;;4967718;28;87641;-46
2022/05/20 06:07:04;;;;;;;;;;;13.70;57.50;;;;;;4967233;28;88423;-46
2022/05/20 06:09:29;;;;;;;;;;;13.70;57.60;;;;;;4967910;28;86941;-47
2022/05/20 06:11:55;;;;;;;;;;;13.70;57.60;;;;;;4967935;28;87201;-46
2022/05/20 06:14:21;;;;;;;;;;;13.70;57.60;;;;;;4967616;28;87622;-47
2022/05/20 06:16:46;;;;;;;;;;;13.70;57.60;;;;;;4967640;28;86990;-46
2022/05/20 06:19:12;;;;;;;;;;;13.70;57.60;;;;;;4967514;28;87007;-46
2022/05/20 06:21:40;;;;;;;;;;;13.70;57.50;;;;;;4966483;28;88398;-46
2022/05/20 06:24:06;;;;;;;;;;;13.70;57.70;;;;;;4970516;28;86893;-46
2022/05/20 06:26:32;;;;;;;;;;;13.70;57.60;;;;;;4966862;28;89127;-46
2022/05/20 06:28:57;;;;;;;;;;;13.70;57.60;;;;;;4967586;28;86913;-46
2022/05/20 06:31:23;;;;;;;;;;;13.70;57.60;;;;;;4967544;28;86903;-47
2022/05/20 06:33:48;;;;;;;;;;;13.80;57.50;;;;;;4967235;28;87408;-46
2022/05/20 06:41:43;;;;;;;;;;;13.80;57.40;;;;;;4963383;28;87263;-46
2022/05/20 06:44:08;;;;;;;;;;;13.80;57.20;;;;;;4967162;28;86895;-47
2022/05/20 06:46:34;;;;;;;;;;;13.80;57.70;;;;;;4968715;28;87950;-46
2022/05/20 06:49:00;;;;;;;;;;;13.80;57.60;;;;;;4966572;28;86937;-46
2022/05/20 06:51:29;;;;;;;;;;;13.80;57.70;;;;;;4967181;28;86900;-46
2022/05/20 06:53:56;;;;;;;;;;;13.90;57.70;;;;;;4966362;28;88448;-47
2022/05/20 06:56:24;;;;;;;;;;;13.90;57.60;;;;;;4966127;28;87091;-46
2022/05/20 06:58:49;;;;;;;;;;;13.80;57.70;;;;;;4966885;28;87165;-46
2022/05/20 07:01:15;;;;;;;;;;;13.80;57.80;;;;;;4966454;28;87609;-46
2022/05/20 07:03:41;;;;;;;;;;;13.80;58.10;;;;;;4967096;28;86135;-46
2022/05/20 07:06:08;;;;;;;;;;;13.90;57.60;;;;;;4969148;28;87397;-46
2022/05/20 07:08:34;;;;;;;;;;;13.90;57.60;;;;;;4966361;28;86838;-47
2022/05/20 07:11:01;;;;;;;;;;;13.90;57.30;;;;;;4965970;28;88027;-47
2022/05/20 07:13:31;;;;;;;;;;;13.90;57.50;;;;;;4966080;28;87809;-48
2022/05/20 07:15:57;;;;;;;;;;;13.90;57.40;;;;;;4966579;28;86892;-46
2022/05/20 07:18:23;;;;;;;;;;;13.90;57.50;;;;;;4966626;28;87256;-50
2022/05/20 07:20:49;;;;;;;;;;;13.90;58.00;;;;;;4965936;28;88354;-46
2022/05/20 07:23:14;;;;;;;;;;;13.80;57.60;;;;;;4966382;28;86852;-46
2022/05/20 07:25:40;;;;;;;;;;;13.90;58.30;;;;;;4966197;28;88163;-45
2022/05/20 07:28:06;;;;;;;;;;;13.90;57.80;;;;;;4969542;28;86802;-47
2022/05/20 07:30:33;;;;;;;;;;;13.90;57.60;;;;;;4966751;28;86910;-46
2022/05/20 07:32:58;;;;;;;;;;;14.00;57.60;;;;;;4966110;28;87514;-46
2022/05/20 07:35:25;;;;;;;;;;;13.90;57.50;;;;;;4965728;28;87803;-46
2022/05/20 07:37:51;;;;;;;;;;;13.90;57.60;;;;;;4965983;28;88009;-47
2022/05/20 07:40:17;;;;;;;;;;;14.00;57.40;;;;;;4965928;28;88661;-46
2022/05/20 07:42:43;;;;;;;;;;;14.00;57.50;;;;;;4965835;28;87189;-47
2022/05/20 07:45:08;;;;;;;;;;;14.00;57.40;;;;;;4966196;28;86895;-48
2022/05/20 07:47:34;;;;;;;;;;;14.00;57.60;;;;;;4965727;28;87440;-46
2022/05/20 07:50:00;;;;;;;;;;;14.00;57.30;;;;;;4968423;28;87228;-47
2022/05/20 07:55:10;;;;;;;;;;;14.00;57.50;;;;;;4966159;28;86931;-46
2022/05/20 07:57:36;;;;;;;;;;;14.00;57.50;;;;;;4965825;28;87914;-46
2022/05/20 08:00:03;;;;;;;;;;;14.00;57.50;;;;;;4964759;28;89539;-46
2022/05/20 08:02:29;;;;;;;;;;;14.00;57.70;;;;;;4965816;28;86942;-46
2022/05/20 08:04:56;;;;;;;;;;;14.10;57.60;;;;;;4965931;28;86938;-47
2022/05/20 08:07:33;;;;;;;;;;;14.10;57.60;;;;;;4965320;28;88647;-46
2022/05/20 08:09:59;;;;;;;;;;;14.00;57.50;;;;;;4965955;28;86925;-48
2022/05/20 08:12:25;;;;;;;;;;;14.00;57.50;;;;;;4968153;28;87711;-47
2022/05/20 08:14:51;;;;;;;;;;;14.00;57.50;;;;;;4965600;28;86917;-46
2022/05/20 08:17:18;;;;;;;;;;;14.00;57.50;;;;;;4966295;28;86864;-46
2022/05/20 08:19:44;;;;;;;;;;;14.10;57.70;;;;;;4965233;28;87827;-48
2022/05/20 08:22:10;;;;;;;;;;;14.00;58.00;;;;;;4965595;28;86937;-46
2022/05/20 08:24:36;;;;;;;;;;;14.00;57.70;;;;;;4964839;28;88183;-47
2022/05/20 08:27:02;;;;;;;;;;;14.10;57.50;;;;;;4965100;28;88550;-47
2022/05/20 08:29:27;;;;;;;;;;;14.10;57.30;;;;;;4965793;28;87292;-46
2022/05/20 08:31:53;;;;;;;;;;;14.10;57.30;;;;;;4964740;28;86879;-46
2022/05/20 08:34:18;;;;;;;;;;;14.10;57.30;;;;;;4968177;28;88520;-46
2022/05/20 08:36:44;;;;;;;;;;;14.10;57.30;;;;;;4965826;28;86869;-47
2022/05/20 08:39:12;;;;;;;;;;;14.10;57.20;;;;;;4965197;28;88427;-46
2022/05/20 08:41:40;;;;;;;;;;;14.20;57.30;;;;;;4965988;28;86123;-46
2022/05/20 08:44:08;;;;;;;;;;;14.20;57.20;;;;;;4965698;28;87120;-46
2022/05/20 08:46:34;;;;;;;;;;;14.20;57.20;;;;;;4965175;28;88805;-46
2022/05/20 08:49:00;;;;;;;;;;;14.20;57.30;;;;;;4964826;28;87828;-46
2022/05/20 08:51:28;;;;;;;;;;;14.20;57.10;;;;;;4964980;28;88176;-46
2022/05/20 08:53:53;;;;;;;;;;;14.20;57.10;;;;;;4964916;28;88552;-47
2022/05/20 08:56:21;;;;;;;;;;;14.20;57.10;;;;;;4968290;28;86843;-46
2022/05/20 08:58:50;;;;;;;;;;;14.20;57.20;;;;;;4964802;28;89042;-46
2022/05/20 09:01:25;;;;;;;;;;;14.20;57.20;;;;;;4965436;28;86922;-46
2022/05/20 09:03:50;;;;;;;;;;;14.30;57.20;;;;;;4967339;28;86905;-47
2022/05/20 09:06:16;;;;;;;;;;;14.30;57.30;;;;;;4968915;28;86229;-46
2022/05/20 09:08:42;;;;;;;;;;;14.30;57.60;;;;;;4968452;28;86894;-47
2022/05/20 09:11:12;;;;;;;;;;;14.30;57.80;;;;;;4968542;28;87124;-47
2022/05/20 09:16:29;;;;;;;;;;;14.30;57.80;;;;;;4971618;28;86860;-47
2022/05/20 09:19:23;;;;;;;;;;;14.30;57.70;;;;;;4968074;28;88520;-46
2022/05/20 09:21:59;;;;;;;;;;;14.30;57.50;;;;;;4968519;28;86905;-47
2022/05/20 09:24:25;;;;;;;;;;;14.40;57.80;;;;;;4968407;28;87900;-46
2022/05/20 09:26:59;;;;;;;;;;;14.40;57.40;;;;;;4968306;28;86874;-46
2022/05/20 09:29:30;;;;;;;;;;;14.40;57.50;;;;;;4968203;28;86793;-46
2022/05/20 09:32:03;;;;;;;;;;;14.50;57.50;;;;;;4968894;28;87016;-46
2022/05/20 09:34:31;;;;;;;;;;;14.50;57.50;;;;;;4967779;28;88957;-47
2022/05/20 09:37:06;;;;;;;;;;;14.50;57.30;;;;;;4968134;28;86871;-46
2022/05/20 09:39:36;;;;;;;;;;;14.50;57.50;;;;;;4970592;28;88070;-46
2022/05/20 09:42:10;;;;;;;;;;;14.50;57.50;;;;;;4968020;28;87041;-46
2022/05/20 09:44:40;;;;;;;;;;;14.60;57.40;;;;;;4968350;28;87323;-47
2022/05/20 09:47:12;;;;;;;;;;;14.60;57.30;;;;;;4967551;28;86954;-46
2022/05/20 09:49:52;;;;;;;;;;;14.60;57.40;;;;;;4967653;28;87117;-46
2022/05/20 09:52:34;;;;;;;;;;;14.60;57.30;;;;;;4967847;28;88379;-46
2022/05/20 09:55:05;;;;;;;;;;;14.70;57.40;;;;;;4967626;28;88989;-46
2022/05/20 09:57:42;;;;;;;;;;;14.70;57.30;;;;;;4968284;28;86227;-48
2022/05/20 10:00:07;;;;;;;;;;;14.70;57.40;;;;;;4967697;28;87143;-46
2022/05/20 10:02:33;;;;;;;;;;;14.70;57.40;;;;;;4970055;28;88345;-46
2022/05/20 10:05:18;;;;;;;;;;;14.70;57.50;;;;;;4966882;28;87765;-47
2022/05/20 10:07:57;;;;;;;;;;;14.70;57.40;;;;;;4967155;28;88688;-47
2022/05/20 10:10:29;;;;;;;;;;;14.80;57.30;;;;;;4967677;28;86862;-47
2022/05/20 10:12:57;;;;;;;;;;;14.80;57.30;;;;;;4967628;28;87910;-47
2022/05/20 10:15:26;;;;;;;;;;;14.80;57.30;;;;;;4966226;28;88229;-47
2022/05/20 10:18:03;;;;;;;;;;;14.80;57.30;;;;;;4967601;28;86914;-46
2022/05/20 10:20:29;;;;;;;;;;;14.80;57.30;;;;;;4967703;28;87247;-46
2022/05/20 10:22:54;;;;;;;;;;;14.90;57.30;;;;;;4967837;28;86705;-48
2022/05/20 10:25:39;;;;;;;;;;;14.90;57.30;;;;;;4970215;28;86928;-47
2022/05/20 10:32:34;;;;;;;;;;;14.90;57.30;;;;;;4967159;28;86918;-46
2022/05/20 10:33:51;;;;;;;;;;;15.00;57.30;;;;;;4967559;28;87484;-46
2022/05/20 10:36:19;;;;;;;;;;;15.00;57.40;;;;;;4967110;28;87499;-47
2022/05/20 10:38:45;;;;;;;;;;;15.00;57.50;;;;;;4967756;28;87081;-47
2022/05/20 10:41:29;;;;;;;;;;;15.00;57.30;;;;;;4967115;28;87067;-46
2022/05/20 10:49:45;;;;;;;;;;;15.10;57.10;;;;;;4967905;28;87636;-46
2022/05/20 10:52:11;;;;;;;;;;;15.10;57.00;;;;;;4967068;28;87167;-47
2022/05/20 10:54:45;;;;;;;;;;;15.20;57.10;;;;;;4966912;28;87005;-47
2022/05/20 10:57:13;;;;;;;;;;;15.20;57.30;;;;;;4966193;28;88423;-46
2022/05/20 10:59:51;;;;;;;;;;;15.20;57.20;;;;;;4966984;28;86934;-47
2022/05/20 11:02:20;;;;;;;;;;;15.30;57.10;;;;;;4965764;28;86874;-47
2022/05/20 11:05:03;;;;;;;;;;;15.30;57.00;;;;;;4966093;28;88290;-48
2022/05/20 11:07:32;;;;;;;;;;;15.30;57.00;;;;;;4966922;28;86903;-47
2022/05/20 11:10:04;;;;;;;;;;;15.30;57.00;;;;;;4968670;28;87657;-47
2022/05/20 11:13:08;;;;;;;;;;;15.30;56.90;;;;;;4966865;28;87059;-47
2022/05/20 11:16:00;;;;;;;;;;;15.30;56.90;;;;;;4906876;28;87047;-47
2022/05/20 11:18:38;;;;;;;;;;;15.40;57.00;;;;;;4898534;28;87655;-47
2022/05/20 11:21:06;;;;;;;;;;;15.40;56.90;;;;;;4949801;28;87134;-47
2022/05/20 11:23:32;;;;;;;;;;;15.40;57.00;;;;;;4965451;28;87811;-46
2022/05/20 11:26:16;;;;;;;;;;;15.50;57.30;;;;;;4966545;28;88399;-46
2022/05/20 11:29:05;;;;;;;;;;;15.50;57.20;;;;;;4966875;28;87016;-47
2022/05/20 11:31:44;;;;;;;;;;;15.50;57.00;;;;;;4937945;28;88026;-47
2022/05/20 11:34:13;;;;;;;;;;;15.50;56.90;;;;;;4968583;28;88719;-47
2022/05/20 11:36:56;;;;;;;;;;;15.60;57.00;;;;;;4966615;28;86829;-47
2022/05/20 11:39:33;;;;;;;;;;;15.60;57.00;;;;;;4965793;28;88625;-46
2022/05/20 11:42:18;;;;;;;;;;;15.70;57.00;;;;;;4966713;28;86187;-46
2022/05/20 11:44:51;;;;;;;;;;;15.70;56.90;;;;;;4966239;28;86991;-47
2022/05/20 11:47:18;;;;;;;;;;;15.70;56.90;;;;;;4966237;28;87976;-46
2022/05/20 11:49:47;;;;;;;;;;;15.70;57.00;;;;;;4965158;28;87802;-46
2022/05/20 11:52:15;;;;;;;;;;;15.80;56.80;;;;;;4966651;28;87750;-47
2022/05/20 11:54:50;;;;;;;;;;;15.80;56.80;;;;;;4966357;28;87319;-47
2022/05/20 11:57:24;;;;;;;;;;;15.80;56.80;;;;;;4969542;28;86983;-47
2022/05/20 11:59:53;;;;;;;;;;;15.90;56.70;;;;;;4966086;28;88488;-47
2022/05/20 12:02:19;;;;;;;;;;;15.90;56.50;;;;;;4966463;28;86893;-47
2022/05/20 12:04:46;;;;;;;;;;;15.90;56.50;;;;;;4966573;28;87862;-47
2022/05/20 12:07:13;;;;;;;;;;;15.90;56.40;;;;;;4966964;28;86780;-47
2022/05/20 12:09:43;;;;;;;;;;;15.90;56.40;;;;;;4966410;28;86905;-47
2022/05/20 12:12:12;;;;;;;;;;;16.00;56.40;;;;;;4966450;28;87903;-47
2022/05/20 12:14:56;;;;;;;;;;;16.00;56.40;;;;;;4965342;28;89397;-47
2022/05/20 12:17:30;;;;;;;;;;;16.00;56.50;;;;;;4966687;28;86936;-47
2022/05/20 12:25:44;;;;;;;;;;;16.20;56.50;;;;;;4963196;28;87004;-47
2022/05/20 12:28:27;;;;;;;;;;;16.20;56.40;;;;;;4965211;28;87005;-47
2022/05/20 12:31:12;;;;;;;;;;;16.20;56.80;;;;;;4966440;28;87008;-47
2022/05/20 12:33:59;;;;;;;;;;;16.30;56.10;;;;;;4966601;28;87924;-47
2022/05/20 12:36:27;;;;;;;;;;;16.30;55.80;;;;;;4965796;28;88114;-47
2022/05/20 12:39:13;;;;;;;;;;;16.30;55.80;;;;;;4968025;28;87150;-47
2022/05/20 12:41:48;;;;;;;;;;;16.40;55.70;;;;;;4968370;28;88565;-47
2022/05/20 12:44:17;;;;;;;;;;;16.40;55.60;;;;;;4971910;28;88476;-47
2022/05/20 12:46:49;;;;;;;;;;;16.40;55.50;;;;;;4969500;28;87720;-47
2022/05/20 12:49:14;;;;;;;;;;;16.40;55.30;;;;;;4968887;28;87500;-47
2022/05/20 12:51:48;;;;;;;;;;;16.50;55.20;;;;;;4969376;28;86986;-47
2022/05/20 12:54:16;;;;;;;;;;;16.50;54.50;;;;;;4969596;28;87132;-47
2022/05/20 12:56:41;;;;;;;;;;;16.50;54.70;;;;;;4969159;28;86981;-47
2022/05/20 12:59:21;;;;;;;;;;;16.60;55.00;;;;;;4969947;28;86380;-47
2022/05/20 13:01:58;;;;;;;;;;;16.60;54.90;;;;;;4969120;28;87130;-47
2022/05/20 13:04:26;;;;;;;;;;;16.60;54.70;;;;;;4968567;28;88617;-47
2022/05/20 13:06:52;;;;;;;;;;;16.70;54.20;;;;;;4970941;28;87827;-47
2022/05/20 13:09:25;;;;;;;;;;;16.70;54.80;;;;;;4967768;28;86851;-47
2022/05/20 13:11:50;;;;;;;;;;;16.70;54.70;;;;;;4951262;28;87038;-47
2022/05/20 13:14:17;;;;;;;;;;;16.70;54.70;;;;;;4968329;28;87863;-47
2022/05/20 13:16:50;;;;;;;;;;;16.70;54.50;;;;;;4967923;28;88831;-47
2022/05/20 13:19:18;;;;;;;;;;;16.80;54.40;;;;;;4968271;28;86793;-47
2022/05/20 13:21:49;;;;;;;;;;;16.80;54.10;;;;;;4968387;28;87111;-47
2022/05/20 13:24:17;;;;;;;;;;;16.90;54.20;;;;;;4968651;28;87035;-47
2022/05/20 13:26:43;;;;;;;;;;;16.90;53.90;;;;;;4971518;28;86937;-47
2022/05/20 13:29:09;;;;;;;;;;;16.80;53.10;;;;;;4968113;28;88655;-47
2022/05/20 13:31:34;;;;;;;;;;;16.90;53.50;;;;;;4967731;28;87754;-47
2022/05/20 13:34:00;;;;;;;;;;;17.00;53.90;;;;;;4968712;28;88488;-47
2022/05/20 13:36:32;;;;;;;;;;;17.00;53.40;;;;;;4967918;28;88734;-47
2022/05/20 13:39:00;;;;;;;;;;;17.00;53.50;;;;;;4968265;28;86850;-47
2022/05/20 13:41:28;;;;;;;;;;;17.00;53.10;;;;;;4968518;28;86930;-47
2022/05/20 13:43:54;;;;;;;;;;;17.10;53.60;;;;;;4968245;28;87490;-47
2022/05/20 13:49:13;;;;;;;;;;;17.10;53.30;;;;;;4970560;28;86559;-47
2022/05/20 13:51:49;;;;;;;;;;;17.20;53.20;;;;;;4967147;28;86841;-47
2022/05/20 13:54:18;;;;;;;;;;;17.20;53.40;;;;;;4968231;28;87896;-48
2022/05/20 13:56:45;;;;;;;;;;;17.20;52.90;;;;;;4967494;28;88404;-47
2022/05/20 13:59:32;;;;;;;;;;;17.30;52.80;;;;;;4968454;28;86900;-47
2022/05/20 14:02:13;;;;;;;;;;;17.30;53.40;;;;;;4968206;28;87164;-47
2022/05/20 14:04:43;;;;;;;;;;;17.30;53.60;;;;;;4967729;28;87618;-48
2022/05/20 14:07:18;;;;;;;;;;;17.30;53.30;;;;;;4968242;28;86970;-48
2022/05/20 14:10:06;;;;;;;;;;;17.30;53.20;;;;;;4968040;28;87185;-47
2022/05/20 14:12:33;;;;;;;;;;;17.30;53.30;;;;;;4942221;28;87190;-47
2022/05/20 14:15:06;;;;;;;;;;;17.40;53.10;;;;;;4968624;28;87995;-48
2022/05/20 14:17:32;;;;;;;;;;;17.50;53.40;;;;;;4967507;28;88417;-47
2022/05/20 14:20:09;;;;;;;;;;;17.50;53.70;;;;;;4967838;28;86946;-47
2022/05/20 14:22:35;;;;;;;;;;;17.50;53.60;;;;;;4967240;28;87857;-47
2022/05/20 14:25:03;;;;;;;;;;;17.40;53.70;;;;;;4967551;28;88664;-47
2022/05/20 14:27:40;;;;;;;;;;;17.50;53.60;;;;;;4967657;28;86864;-51
2022/05/20 14:30:24;;;;;;;;;;;17.50;53.70;;;;;;4967636;28;87885;-47
2022/05/20 14:32:50;;;;;;;;;;;17.50;54.00;;;;;;4967310;28;88568;-48
2022/05/20 14:35:17;;;;;;;;;;;17.50;53.80;;;;;;4970749;28;86936;-48
2022/05/20 14:37:43;;;;;;;;;;;17.50;53.80;;;;;;4967418;28;87506;-47
2022/05/20 14:40:11;;;;;;;;;;;17.60;53.50;;;;;;4967656;28;86535;-48
2022/05/20 14:42:42;;;;;;;;;;;17.60;53.30;;;;;;4967259;28;87336;-48
2022/05/20 14:45:13;;;;;;;;;;;17.60;53.40;;;;;;4967253;28;87467;-48
2022/05/20 14:47:41;;;;;;;;;;;17.60;53.90;;;;;;4967188;28;87853;-48
2022/05/20 14:50:27;;;;;;;;;;;17.70;53.50;;;;;;4966958;28;88151;-49
2022/05/20 14:52:54;;;;;;;;;;;17.70;53.70;;;;;;4967182;28;88531;-48
2022/05/20 14:55:38;;;;;;;;;;;17.70;53.10;;;;;;4967462;28;86939;-47
2022/05/20 14:58:05;;;;;;;;;;;17.80;53.50;;;;;;4969673;28;86826;-47
2022/05/20 15:00:32;;;;;;;;;;;17.80;53.70;;;;;;4966333;28;86901;-47
2022/05/20 15:02:59;;;;;;;;;;;17.90;53.40;;;;;;4967105;28;87060;-48
2022/05/20 15:05:26;;;;;;;;;;;17.90;53.70;;;;;;4967303;28;87590;-48
2022/05/20 15:07:55;;;;;;;;;;;17.90;53.20;;;;;;4967489;28;86818;-47
2022/05/20 15:10:21;;;;;;;;;;;17.90;52.80;;;;;;4966989;28;87884;-49
2022/05/20 15:12:48;;;;;;;;;;;18.00;53.00;;;;;;4965892;28;88580;-47